sensor_id;sensor_type;location;lat;lon;timestamp;pressure;altitude;pressure_sealevel;temperature;humidity
48364;BME280;34170;54.364;18.582;2023-04-08T00:00:12;100847.06;;;8.67;100.00
48364;BME280;34170;54.364;18.582;2023-04-08T00:03:00;100840.84;;;8.55;100.00
48364;BME280;34170;54.364;18.582;2023-04-08T00:05:28;100842.19;;;8.61;100.00
48364;BME280;34170;54.364;18.582;2023-04-08T00:07:56;100841.94;;;8.52;100.00
48364;BME280;34170;54.364;18.582;2023-04-08T00:10:23;100848.13;;;8.53;100.00
48364;BME280;34170;54.364;18.582;2023-04-08T00:12:52;100853.16;;;8.57;100.00
48364;BME280;34170;54.364;18.582;2023-04-08T00:15:19;100860.25;;;8.58;100.00
48364;BME280;34170;54.364;18.582;2023-04-08T00:17:47;100859.13;;;8.61;100.00
48364;BME280;34170;54.364;18.582;2023-04-08T00:20:14;100869.38;;;8.67;100.00
48364;BME280;34170;54.364;18.582;2023-04-08T00:22:42;100855.00;;;8.68;100.00
48364;BME280;34170;54.364;18.582;2023-04-08T00:25:09;100855.38;;;8.75;100.00
48364;BME280;34170;54.364;18.582;2023-04-08T00:27:37;100850.75;;;8.77;100.00
48364;BME280;34170;54.364;18.582;2023-04-08T00:30:05;100858.78;;;8.77;100.00
48364;BME280;34170;54.364;18.582;2023-04-08T00:32:33;100844.50;;;8.65;100.00
48364;BME280;34170;54.364;18.582;2023-04-08T00:35:01;100857.19;;;8.63;100.00
48364;BME280;34170;54.364;18.582;2023-04-08T00:37:29;100859.97;;;8.62;100.00
48364;BME280;34170;54.364;18.582;2023-04-08T00:39:57;100860.25;;;8.58;100.00
48364;BME280;34170;54.364;18.582;2023-04-08T00:42:25;100855.72;;;8.59;100.00
48364;BME280;34170;54.364;18.582;2023-04-08T00:44:52;100859.22;;;8.48;100.00
48364;BME280;34170;54.364;18.582;2023-04-08T00:47:20;100870.56;;;8.52;100.00
48364;BME280;34170;54.364;18.582;2023-04-08T00:49:47;100875.22;;;8.61;100.00
48364;BME280;34170;54.364;18.582;2023-04-08T00:52:15;100865.66;;;8.46;100.00
48364;BME280;34170;54.364;18.582;2023-04-08T00:54:43;100873.75;;;8.33;100.00
48364;BME280;34170;54.364;18.582;2023-04-08T00:57:10;100873.44;;;8.13;100.00
48364;BME280;34170;54.364;18.582;2023-04-08T00:59:38;100868.03;;;8.02;100.00
48364;BME280;34170;54.364;18.582;2023-04-08T01:02:13;100878.06;;;7.87;100.00
48364;BME280;34170;54.364;18.582;2023-04-08T01:05:05;100881.31;;;8.04;100.00
48364;BME280;34170;54.364;18.582;2023-04-08T01:07:40;100889.00;;;8.08;100.00
48364;BME280;34170;54.364;18.582;2023-04-08T01:10:32;100885.81;;;7.79;100.00
48364;BME280;34170;54.364;18.582;2023-04-08T01:13:04;100894.94;;;7.76;100.00
48364;BME280;34170;54.364;18.582;2023-04-08T01:15:35;100892.88;;;7.43;100.00
48364;BME280;34170;54.364;18.582;2023-04-08T01:18:12;100890.25;;;7.54;100.00
48364;BME280;34170;54.364;18.582;2023-04-08T01:20:41;100893.41;;;7.72;100.00
48364;BME280;34170;54.364;18.582;2023-04-08T01:23:17;100897.94;;;7.72;100.00
48364;BME280;34170;54.364;18.582;2023-04-08T01:25:57;100890.84;;;7.71;100.00
48364;BME280;34170;54.364;18.582;2023-04-08T01:28:28;100901.34;;;7.74;100.00
48364;BME280;34170;54.364;18.582;2023-04-08T01:30:59;100894.94;;;7.76;100.00
48364;BME280;34170;54.364;18.582;2023-04-08T01:33:28;100900.28;;;7.76;100.00
48364;BME280;34170;54.364;18.582;2023-04-08T01:35:57;100908.19;;;7.78;100.00
48364;BME280;34170;54.364;18.582;2023-04-08T01:38:29;100909.91;;;7.79;100.00
48364;BME280;34170;54.364;18.582;2023-04-08T01:40:58;100907.34;;;7.77;100.00
48364;BME280;34170;54.364;18.582;2023-04-08T01:43:26;100907.00;;;7.82;100.00
48364;BME280;34170;54.364;18.582;2023-04-08T01:45:54;100908.81;;;7.81;100.00
48364;BME280;34170;54.364;18.582;2023-04-08T01:48:25;100917.94;;;7.29;100.00
48364;BME280;34170;54.364;18.582;2023-04-08T01:50:54;100915.34;;;7.28;100.00
48364;BME280;34170;54.364;18.582;2023-04-08T01:53:23;100920.31;;;7.21;100.00
48364;BME280;34170;54.364;18.582;2023-04-08T01:55:57;100918.13;;;7.26;100.00
48364;BME280;34170;54.364;18.582;2023-04-08T01:58:31;100916.75;;;7.46;100.00
48364;BME280;34170;54.364;18.582;2023-04-08T02:00:59;100926.69;;;7.44;100.00
48364;BME280;34170;54.364;18.582;2023-04-08T02:03:28;100920.50;;;7.18;100.00
48364;BME280;34170;54.364;18.582;2023-04-08T02:05:57;100916.19;;;7.54;100.00
48364;BME280;34170;54.364;18.582;2023-04-08T02:08:24;100921.78;;;7.25;100.00
48364;BME280;34170;54.364;18.582;2023-04-08T02:10:52;100910.44;;;7.21;100.00
48364;BME280;34170;54.364;18.582;2023-04-08T02:13:20;100915.38;;;7.40;100.00
48364;BME280;34170;54.364;18.582;2023-04-08T02:15:51;100925.72;;;7.45;100.00
48364;BME280;34170;54.364;18.582;2023-04-08T02:18:25;100924.22;;;7.54;100.00
48364;BME280;34170;54.364;18.582;2023-04-08T02:21:02;100928.09;;;7.50;100.00
48364;BME280;34170;54.364;18.582;2023-04-08T02:23:32;100930.66;;;7.51;100.00
48364;BME280;34170;54.364;18.582;2023-04-08T02:26:02;100927.53;;;7.57;100.00
48364;BME280;34170;54.364;18.582;2023-04-08T02:28:33;100927.56;;;7.32;100.00
48364;BME280;34170;54.364;18.582;2023-04-08T02:31:01;100934.09;;;6.89;100.00
48364;BME280;34170;54.364;18.582;2023-04-08T02:33:30;100930.78;;;7.24;100.00
48364;BME280;34170;54.364;18.582;2023-04-08T02:36:00;100927.47;;;6.95;100.00
48364;BME280;34170;54.364;18.582;2023-04-08T02:38:29;100926.06;;;7.02;100.00
48364;BME280;34170;54.364;18.582;2023-04-08T02:40:57;100927.03;;;6.88;100.00
48364;BME280;34170;54.364;18.582;2023-04-08T02:43:25;100930.13;;;7.33;100.00
48364;BME280;34170;54.364;18.582;2023-04-08T02:45:59;100936.75;;;7.53;100.00
48364;BME280;34170;54.364;18.582;2023-04-08T02:48:30;100947.09;;;7.58;100.00
48364;BME280;34170;54.364;18.582;2023-04-08T02:50:57;100950.84;;;7.68;100.00
48364;BME280;34170;54.364;18.582;2023-04-08T02:53:25;100938.41;;;7.67;100.00
48364;BME280;34170;54.364;18.582;2023-04-08T02:55:52;100945.56;;;7.79;100.00
48364;BME280;34170;54.364;18.582;2023-04-08T02:58:20;100933.31;;;7.88;100.00
48364;BME280;34170;54.364;18.582;2023-04-08T03:00:47;100946.50;;;7.91;100.00
48364;BME280;34170;54.364;18.582;2023-04-08T03:03:14;100942.66;;;7.82;100.00
48364;BME280;34170;54.364;18.582;2023-04-08T03:05:42;100943.97;;;7.77;100.00
48364;BME280;34170;54.364;18.582;2023-04-08T03:08:10;100949.13;;;7.80;100.00
48364;BME280;34170;54.364;18.582;2023-04-08T03:10:37;100942.88;;;7.79;100.00
48364;BME280;34170;54.364;18.582;2023-04-08T03:13:04;100937.97;;;7.73;100.00
48364;BME280;34170;54.364;18.582;2023-04-08T03:15:32;100951.59;;;7.70;100.00
48364;BME280;34170;54.364;18.582;2023-04-08T03:17:59;100950.50;;;7.86;100.00
48364;BME280;34170;54.364;18.582;2023-04-08T03:20:26;100944.38;;;7.83;100.00
48364;BME280;34170;54.364;18.582;2023-04-08T03:22:54;100950.91;;;7.79;100.00
48364;BME280;34170;54.364;18.582;2023-04-08T03:25:21;100951.13;;;7.89;100.00
48364;BME280;34170;54.364;18.582;2023-04-08T03:27:49;100945.66;;;7.78;100.00
48364;BME280;34170;54.364;18.582;2023-04-08T03:30:17;100949.28;;;7.90;100.00
48364;BME280;34170;54.364;18.582;2023-04-08T03:32:44;100959.56;;;7.96;100.00
48364;BME280;34170;54.364;18.582;2023-04-08T03:35:12;100955.38;;;7.92;100.00
48364;BME280;34170;54.364;18.582;2023-04-08T03:37:39;100968.78;;;7.92;100.00
48364;BME280;34170;54.364;18.582;2023-04-08T03:40:07;100969.66;;;7.92;100.00
48364;BME280;34170;54.364;18.582;2023-04-08T03:42:35;100965.53;;;7.62;100.00
48364;BME280;34170;54.364;18.582;2023-04-08T03:45:03;100976.78;;;7.29;100.00
48364;BME280;34170;54.364;18.582;2023-04-08T03:47:30;100965.75;;;7.08;100.00
48364;BME280;34170;54.364;18.582;2023-04-08T03:49:58;100967.19;;;7.14;100.00
48364;BME280;34170;54.364;18.582;2023-04-08T03:52:25;100969.53;;;7.44;100.00
48364;BME280;34170;54.364;18.582;2023-04-08T03:54:53;100977.53;;;7.57;100.00
48364;BME280;34170;54.364;18.582;2023-04-08T03:57:20;100972.28;;;7.55;100.00
48364;BME280;34170;54.364;18.582;2023-04-08T03:59:47;100976.56;;;7.58;100.00
48364;BME280;34170;54.364;18.582;2023-04-08T04:02:15;100986.31;;;7.59;100.00
48364;BME280;34170;54.364;18.582;2023-04-08T04:04:42;100981.81;;;7.47;100.00
48364;BME280;34170;54.364;18.582;2023-04-08T04:07:10;100986.63;;;7.41;100.00
48364;BME280;34170;54.364;18.582;2023-04-08T04:09:37;100980.00;;;7.34;100.00
48364;BME280;34170;54.364;18.582;2023-04-08T04:12:05;100982.69;;;7.34;100.00
48364;BME280;34170;54.364;18.582;2023-04-08T04:14:32;100986.53;;;7.30;100.00
48364;BME280;34170;54.364;18.582;2023-04-08T04:17:00;100987.47;;;7.42;100.00
48364;BME280;34170;54.364;18.582;2023-04-08T04:19:30;100993.81;;;7.41;100.00
48364;BME280;34170;54.364;18.582;2023-04-08T04:21:58;101002.38;;;7.46;100.00
48364;BME280;34170;54.364;18.582;2023-04-08T04:24:25;101002.03;;;7.51;100.00
48364;BME280;34170;54.364;18.582;2023-04-08T04:26:53;100991.34;;;7.51;100.00
48364;BME280;34170;54.364;18.582;2023-04-08T04:29:20;101002.38;;;7.59;100.00
48364;BME280;34170;54.364;18.582;2023-04-08T04:31:47;101001.38;;;7.60;100.00
48364;BME280;34170;54.364;18.582;2023-04-08T04:34:15;100995.81;;;7.63;100.00
48364;BME280;34170;54.364;18.582;2023-04-08T04:36:43;101008.66;;;7.83;100.00
48364;BME280;34170;54.364;18.582;2023-04-08T04:39:10;101003.63;;;7.79;100.00
48364;BME280;34170;54.364;18.582;2023-04-08T04:41:38;101002.78;;;7.78;100.00
48364;BME280;34170;54.364;18.582;2023-04-08T04:44:06;101014.81;;;7.97;100.00
48364;BME280;34170;54.364;18.582;2023-04-08T04:46:34;101023.19;;;8.05;100.00
48364;BME280;34170;54.364;18.582;2023-04-08T04:49:01;101021.25;;;8.07;100.00
48364;BME280;34170;54.364;18.582;2023-04-08T04:51:30;101022.19;;;8.06;100.00
48364;BME280;34170;54.364;18.582;2023-04-08T04:53:59;101014.72;;;7.98;100.00
48364;BME280;34170;54.364;18.582;2023-04-08T04:56:26;101025.06;;;8.16;100.00
48364;BME280;34170;54.364;18.582;2023-04-08T04:58:53;101029.81;;;8.36;100.00
48364;BME280;34170;54.364;18.582;2023-04-08T05:01:21;101034.66;;;8.44;100.00
48364;BME280;34170;54.364;18.582;2023-04-08T05:03:48;101036.66;;;8.53;100.00
48364;BME280;34170;54.364;18.582;2023-04-08T05:06:16;101034.13;;;8.63;100.00
48364;BME280;34170;54.364;18.582;2023-04-08T05:08:43;101039.09;;;8.56;100.00
48364;BME280;34170;54.364;18.582;2023-04-08T05:11:11;101038.69;;;8.74;100.00
48364;BME280;34170;54.364;18.582;2023-04-08T05:13:38;101038.69;;;8.98;100.00
48364;BME280;34170;54.364;18.582;2023-04-08T05:16:06;101033.69;;;9.05;100.00
48364;BME280;34170;54.364;18.582;2023-04-08T05:18:33;101034.69;;;9.15;100.00
48364;BME280;34170;54.364;18.582;2023-04-08T05:21:02;101030.34;;;9.25;100.00
48364;BME280;34170;54.364;18.582;2023-04-08T05:23:29;101038.41;;;9.37;100.00
48364;BME280;34170;54.364;18.582;2023-04-08T05:25:56;101034.72;;;9.26;100.00
48364;BME280;34170;54.364;18.582;2023-04-08T05:28:24;101050.38;;;9.32;100.00
48364;BME280;34170;54.364;18.582;2023-04-08T05:30:52;101048.19;;;9.49;100.00
48364;BME280;34170;54.364;18.582;2023-04-08T05:33:20;101041.75;;;9.63;100.00
48364;BME280;34170;54.364;18.582;2023-04-08T05:35:47;101043.31;;;9.65;100.00
48364;BME280;34170;54.364;18.582;2023-04-08T05:38:15;101050.16;;;9.58;100.00
48364;BME280;34170;54.364;18.582;2023-04-08T05:40:42;101051.72;;;9.38;100.00
48364;BME280;34170;54.364;18.582;2023-04-08T05:43:10;101054.78;;;9.56;100.00
48364;BME280;34170;54.364;18.582;2023-04-08T05:45:37;101053.16;;;9.20;100.00
48364;BME280;34170;54.364;18.582;2023-04-08T05:48:04;101067.94;;;9.37;100.00
48364;BME280;34170;54.364;18.582;2023-04-08T05:50:34;101054.84;;;8.61;100.00
48364;BME280;34170;54.364;18.582;2023-04-08T05:53:02;101067.22;;;8.99;100.00
48364;BME280;34170;54.364;18.582;2023-04-08T05:55:29;101070.75;;;8.38;100.00
48364;BME280;34170;54.364;18.582;2023-04-08T05:57:57;101061.69;;;8.89;100.00
48364;BME280;34170;54.364;18.582;2023-04-08T06:00:24;101068.66;;;8.92;100.00
48364;BME280;34170;54.364;18.582;2023-04-08T06:02:52;101066.59;;;9.42;100.00
48364;BME280;34170;54.364;18.582;2023-04-08T06:05:20;101070.81;;;9.11;100.00
48364;BME280;34170;54.364;18.582;2023-04-08T06:07:47;101074.69;;;9.07;100.00
48364;BME280;34170;54.364;18.582;2023-04-08T06:10:15;101072.34;;;8.78;100.00
48364;BME280;34170;54.364;18.582;2023-04-08T06:12:42;101074.63;;;8.95;100.00
48364;BME280;34170;54.364;18.582;2023-04-08T06:15:10;101080.19;;;9.05;100.00
48364;BME280;34170;54.364;18.582;2023-04-08T06:17:38;101085.84;;;8.89;100.00
48364;BME280;34170;54.364;18.582;2023-04-08T06:20:06;101092.91;;;8.90;100.00
48364;BME280;34170;54.364;18.582;2023-04-08T06:22:35;101086.09;;;8.97;100.00
48364;BME280;34170;54.364;18.582;2023-04-08T06:25:03;101091.78;;;9.52;100.00
48364;BME280;34170;54.364;18.582;2023-04-08T06:27:30;101098.78;;;9.89;100.00
48364;BME280;34170;54.364;18.582;2023-04-08T06:29:58;101099.25;;;9.83;100.00
48364;BME280;34170;54.364;18.582;2023-04-08T06:32:25;101105.50;;;10.17;100.00
48364;BME280;34170;54.364;18.582;2023-04-08T06:34:52;101108.78;;;10.21;100.00
48364;BME280;34170;54.364;18.582;2023-04-08T06:37:20;101099.78;;;10.33;100.00
48364;BME280;34170;54.364;18.582;2023-04-08T06:39:47;101109.91;;;10.52;100.00
48364;BME280;34170;54.364;18.582;2023-04-08T06:42:14;101109.28;;;10.60;100.00
48364;BME280;34170;54.364;18.582;2023-04-08T06:44:58;101114.91;;;10.11;100.00
48364;BME280;34170;54.364;18.582;2023-04-08T06:47:25;101110.28;;;10.47;100.00
48364;BME280;34170;54.364;18.582;2023-04-08T06:49:53;101108.78;;;10.66;100.00
48364;BME280;34170;54.364;18.582;2023-04-08T06:52:20;101118.97;;;10.95;100.00
48364;BME280;34170;54.364;18.582;2023-04-08T06:54:48;101117.59;;;11.33;100.00
48364;BME280;34170;54.364;18.582;2023-04-08T06:57:15;101112.59;;;11.70;98.07
48364;BME280;34170;54.364;18.582;2023-04-08T06:59:42;101130.78;;;11.57;96.64
48364;BME280;34170;54.364;18.582;2023-04-08T07:02:10;101121.88;;;11.77;96.59
48364;BME280;34170;54.364;18.582;2023-04-08T07:04:37;101114.25;;;11.82;96.64
48364;BME280;34170;54.364;18.582;2023-04-08T07:07:05;101129.22;;;11.96;94.21
48364;BME280;34170;54.364;18.582;2023-04-08T07:09:33;101130.06;;;12.18;95.08
48364;BME280;34170;54.364;18.582;2023-04-08T07:12:02;101126.72;;;12.05;92.54
48364;BME280;34170;54.364;18.582;2023-04-08T07:14:31;101132.41;;;12.32;95.11
48364;BME280;34170;54.364;18.582;2023-04-08T07:16:58;101128.56;;;12.45;93.46
48364;BME280;34170;54.364;18.582;2023-04-08T07:19:26;101147.78;;;12.11;95.11
48364;BME280;34170;54.364;18.582;2023-04-08T07:21:53;101129.50;;;11.72;95.11
48364;BME280;34170;54.364;18.582;2023-04-08T07:24:21;101133.81;;;11.42;97.16
48364;BME280;34170;54.364;18.582;2023-04-08T07:26:48;101145.38;;;11.33;97.92
48364;BME280;34170;54.364;18.582;2023-04-08T07:29:15;101139.03;;;10.91;100.00
48364;BME280;34170;54.364;18.582;2023-04-08T07:31:43;101148.34;;;11.51;98.61
48364;BME280;34170;54.364;18.582;2023-04-08T07:34:11;101152.00;;;10.97;100.00
48364;BME280;34170;54.364;18.582;2023-04-08T07:36:38;101150.91;;;11.53;100.00
48364;BME280;34170;54.364;18.582;2023-04-08T07:39:06;101144.88;;;12.02;95.29
48364;BME280;34170;54.364;18.582;2023-04-08T07:41:34;101149.34;;;11.92;96.81
48364;BME280;34170;54.364;18.582;2023-04-08T07:44:01;101148.56;;;11.59;97.15
48364;BME280;34170;54.364;18.582;2023-04-08T07:46:29;101157.28;;;11.73;95.92
48364;BME280;34170;54.364;18.582;2023-04-08T07:48:57;101152.22;;;12.22;95.08
48364;BME280;34170;54.364;18.582;2023-04-08T07:51:25;101162.31;;;11.98;95.83
48364;BME280;34170;54.364;18.582;2023-04-08T07:53:53;101156.19;;;11.96;95.67
48364;BME280;34170;54.364;18.582;2023-04-08T07:56:21;101161.75;;;12.26;93.93
48364;BME280;34170;54.364;18.582;2023-04-08T07:58:49;101164.25;;;11.54;96.71
48364;BME280;34170;54.364;18.582;2023-04-08T08:01:21;101165.19;;;12.07;97.28
48364;BME280;34170;54.364;18.582;2023-04-08T08:03:50;101178.97;;;11.50;99.41
48364;BME280;34170;54.364;18.582;2023-04-08T08:06:19;101168.00;;;11.84;97.98
48364;BME280;34170;54.364;18.582;2023-04-08T08:08:47;101164.56;;;11.93;95.39
48364;BME280;34170;54.364;18.582;2023-04-08T08:11:14;101172.69;;;12.34;94.90
48364;BME280;34170;54.364;18.582;2023-04-08T08:13:42;101183.56;;;12.53;92.91
48364;BME280;34170;54.364;18.582;2023-04-08T08:16:09;101181.28;;;13.09;89.48
48364;BME280;34170;54.364;18.582;2023-04-08T08:18:39;101175.66;;;13.41;86.53
48364;BME280;34170;54.364;18.582;2023-04-08T08:21:07;101178.03;;;14.03;84.42
48364;BME280;34170;54.364;18.582;2023-04-08T08:23:35;101193.31;;;14.97;78.52
48364;BME280;34170;54.364;18.582;2023-04-08T08:26:06;101186.06;;;15.15;79.01
48364;BME280;34170;54.364;18.582;2023-04-08T08:28:34;101187.75;;;15.52;74.72
48364;BME280;34170;54.364;18.582;2023-04-08T08:31:01;101196.31;;;15.75;72.05
48364;BME280;34170;54.364;18.582;2023-04-08T08:33:29;101190.31;;;15.90;71.08
48364;BME280;34170;54.364;18.582;2023-04-08T08:35:57;101190.75;;;16.03;69.85
48364;BME280;34170;54.364;18.582;2023-04-08T08:38:25;101187.09;;;16.12;70.67
48364;BME280;34170;54.364;18.582;2023-04-08T08:40:54;101187.00;;;16.65;67.01
48364;BME280;34170;54.364;18.582;2023-04-08T08:43:23;101202.91;;;17.45;64.15
48364;BME280;34170;54.364;18.582;2023-04-08T08:45:51;101203.78;;;17.62;60.10
48364;BME280;34170;54.364;18.582;2023-04-08T08:48:19;101186.25;;;17.48;59.71
48364;BME280;34170;54.364;18.582;2023-04-08T08:50:46;101199.50;;;17.76;59.24
48364;BME280;34170;54.364;18.582;2023-04-08T08:53:14;101211.06;;;17.53;56.85
48364;BME280;34170;54.364;18.582;2023-04-08T08:55:41;101201.41;;;16.83;60.16
48364;BME280;34170;54.364;18.582;2023-04-08T08:58:12;101195.22;;;16.81;62.46
48364;BME280;34170;54.364;18.582;2023-04-08T09:00:40;101205.75;;;15.89;62.13
48364;BME280;34170;54.364;18.582;2023-04-08T09:03:21;101206.75;;;16.41;63.80
48364;BME280;34170;54.364;18.582;2023-04-08T09:05:57;101208.84;;;17.65;58.49
48364;BME280;34170;54.364;18.582;2023-04-08T09:08:33;101203.91;;;18.26;55.97
48364;BME280;34170;54.364;18.582;2023-04-08T09:11:20;101201.94;;;18.59;52.50
48364;BME280;34170;54.364;18.582;2023-04-08T09:13:48;101203.34;;;19.26;50.06
48364;BME280;34170;54.364;18.582;2023-04-08T09:16:18;101203.00;;;19.98;47.94
48364;BME280;34170;54.364;18.582;2023-04-08T09:18:53;101216.03;;;19.42;50.39
48364;BME280;34170;54.364;18.582;2023-04-08T09:21:25;101215.44;;;21.42;45.96
48364;BME280;34170;54.364;18.582;2023-04-08T09:23:53;101215.34;;;22.21;41.38
48364;BME280;34170;54.364;18.582;2023-04-08T09:26:23;101223.47;;;23.06;39.97
48364;BME280;34170;54.364;18.582;2023-04-08T09:29:03;101218.16;;;21.57;41.10
48364;BME280;34170;54.364;18.582;2023-04-08T09:31:59;101212.81;;;21.48;40.39
48364;BME280;34170;54.364;18.582;2023-04-08T09:34:28;101219.38;;;22.54;38.58
48364;BME280;34170;54.364;18.582;2023-04-08T09:36:56;101220.72;;;23.06;38.52
48364;BME280;34170;54.364;18.582;2023-04-08T09:39:24;101210.34;;;21.17;39.67
48364;BME280;34170;54.364;18.582;2023-04-08T09:41:53;101216.94;;;21.44;38.63
48364;BME280;34170;54.364;18.582;2023-04-08T09:44:25;101218.69;;;21.67;40.35
48364;BME280;34170;54.364;18.582;2023-04-08T09:47:03;101227.59;;;22.95;36.51
48364;BME280;34170;54.364;18.582;2023-04-08T09:49:49;101220.22;;;22.54;37.05
48364;BME280;34170;54.364;18.582;2023-04-08T09:52:20;101220.06;;;23.86;35.78
48364;BME280;34170;54.364;18.582;2023-04-08T09:57:30;101217.88;;;24.68;31.86
48364;BME280;34170;54.364;18.582;2023-04-08T10:00:08;101209.59;;;22.44;36.01
48364;BME280;34170;54.364;18.582;2023-04-08T10:05:36;101214.78;;;24.04;34.42
48364;BME280;34170;54.364;18.582;2023-04-08T10:08:06;101216.69;;;25.02;32.80
48364;BME280;34170;54.364;18.582;2023-04-08T10:10:34;101216.06;;;23.95;33.43
48364;BME280;34170;54.364;18.582;2023-04-08T10:13:06;101207.34;;;24.38;33.11
48364;BME280;34170;54.364;18.582;2023-04-08T10:15:35;101210.50;;;23.41;33.76
48364;BME280;34170;54.364;18.582;2023-04-08T10:23:03;101201.47;;;21.73;37.88
48364;BME280;34170;54.364;18.582;2023-04-08T10:25:38;101210.13;;;21.55;38.35
48364;BME280;34170;54.364;18.582;2023-04-08T10:30:46;101199.13;;;23.78;34.71
48364;BME280;34170;54.364;18.582;2023-04-08T10:38:16;101199.16;;;23.03;34.71
48364;BME280;34170;54.364;18.582;2023-04-08T10:40:44;101192.28;;;20.12;39.16
48364;BME280;34170;54.364;18.582;2023-04-08T10:43:13;101189.84;;;20.47;38.61
48364;BME280;34170;54.364;18.582;2023-04-08T10:45:42;101198.59;;;18.41;41.75
48364;BME280;34170;54.364;18.582;2023-04-08T10:48:17;101183.97;;;19.21;42.22
48364;BME280;34170;54.364;18.582;2023-04-08T10:50:52;101182.75;;;19.70;40.72
48364;BME280;34170;54.364;18.582;2023-04-08T10:53:35;101188.78;;;20.92;38.15
48364;BME280;34170;54.364;18.582;2023-04-08T10:56:08;101188.91;;;20.25;39.10
48364;BME280;34170;54.364;18.582;2023-04-08T10:58:54;101180.75;;;20.69;39.09
48364;BME280;34170;54.364;18.582;2023-04-08T11:01:26;101184.94;;;18.49;41.34
48364;BME280;34170;54.364;18.582;2023-04-08T11:03:53;101180.13;;;17.46;44.15
48364;BME280;34170;54.364;18.582;2023-04-08T11:06:21;101192.41;;;19.57;39.73
48364;BME280;34170;54.364;18.582;2023-04-08T11:08:49;101171.66;;;19.94;39.10
48364;BME280;34170;54.364;18.582;2023-04-08T11:11:18;101179.50;;;20.57;37.65
48364;BME280;34170;54.364;18.582;2023-04-08T11:13:45;101170.25;;;20.58;39.12
48364;BME280;34170;54.364;18.582;2023-04-08T11:16:20;101171.59;;;20.77;38.32
48364;BME280;34170;54.364;18.582;2023-04-08T11:18:49;101164.63;;;20.45;40.49
48364;BME280;34170;54.364;18.582;2023-04-08T11:21:17;101176.41;;;19.77;39.71
48364;BME280;34170;54.364;18.582;2023-04-08T11:23:48;101169.59;;;16.33;46.55
48364;BME280;34170;54.364;18.582;2023-04-08T11:26:17;101165.75;;;16.17;47.17
48364;BME280;34170;54.364;18.582;2023-04-08T11:28:45;101171.44;;;17.34;45.46
48364;BME280;34170;54.364;18.582;2023-04-08T11:31:15;101168.38;;;18.11;43.77
48364;BME280;34170;54.364;18.582;2023-04-08T11:33:48;101161.06;;;19.07;43.19
48364;BME280;34170;54.364;18.582;2023-04-08T11:36:17;101155.13;;;16.24;45.80
48364;BME280;34170;54.364;18.582;2023-04-08T11:38:44;101171.75;;;16.64;45.72
48364;BME280;34170;54.364;18.582;2023-04-08T11:41:14;101169.50;;;16.85;49.72
48364;BME280;34170;54.364;18.582;2023-04-08T11:43:52;101168.25;;;16.80;45.70
48364;BME280;34170;54.364;18.582;2023-04-08T11:46:21;101171.78;;;17.72;44.58
48364;BME280;34170;54.364;18.582;2023-04-08T11:49:05;101178.69;;;16.92;47.44
48364;BME280;34170;54.364;18.582;2023-04-08T11:57:55;101171.31;;;16.42;51.92
48364;BME280;34170;54.364;18.582;2023-04-08T12:00:23;101162.31;;;15.81;54.49
48364;BME280;34170;54.364;18.582;2023-04-08T12:02:51;101174.53;;;15.67;58.66
48364;BME280;34170;54.364;18.582;2023-04-08T12:05:19;101180.66;;;15.15;56.56
48364;BME280;34170;54.364;18.582;2023-04-08T12:07:47;101165.91;;;14.82;59.38
48364;BME280;34170;54.364;18.582;2023-04-08T12:10:14;101158.06;;;14.79;59.80
48364;BME280;34170;54.364;18.582;2023-04-08T12:12:42;101170.03;;;15.04;60.52
48364;BME280;34170;54.364;18.582;2023-04-08T12:15:09;101177.13;;;14.87;60.35
48364;BME280;34170;54.364;18.582;2023-04-08T12:17:37;101169.69;;;14.89;59.01
48364;BME280;34170;54.364;18.582;2023-04-08T12:20:05;101173.50;;;14.96;58.88
48364;BME280;34170;54.364;18.582;2023-04-08T12:22:33;101170.75;;;14.03;62.51
48364;BME280;34170;54.364;18.582;2023-04-08T12:25:01;101164.28;;;14.89;57.80
48364;BME280;34170;54.364;18.582;2023-04-08T12:27:30;101156.53;;;14.76;57.58
48364;BME280;34170;54.364;18.582;2023-04-08T12:30:00;101149.53;;;15.01;56.93
48364;BME280;34170;54.364;18.582;2023-04-08T12:32:29;101162.78;;;15.04;56.05
48364;BME280;34170;54.364;18.582;2023-04-08T12:34:56;101154.84;;;14.93;56.79
48364;BME280;34170;54.364;18.582;2023-04-08T12:37:24;101155.03;;;15.10;55.68
48364;BME280;34170;54.364;18.582;2023-04-08T12:39:51;101154.94;;;15.37;53.10
48364;BME280;34170;54.364;18.582;2023-04-08T12:42:19;101160.59;;;14.90;54.91
48364;BME280;34170;54.364;18.582;2023-04-08T12:44:46;101158.66;;;15.18;56.22
48364;BME280;34170;54.364;18.582;2023-04-08T12:47:13;101158.09;;;15.15;55.26
48364;BME280;34170;54.364;18.582;2023-04-08T12:49:41;101156.81;;;15.19;56.28
48364;BME280;34170;54.364;18.582;2023-04-08T12:52:16;101156.19;;;15.07;60.44
48364;BME280;34170;54.364;18.582;2023-04-08T12:54:43;101161.34;;;15.00;61.60
48364;BME280;34170;54.364;18.582;2023-04-08T12:57:11;101155.03;;;14.92;61.70
48364;BME280;34170;54.364;18.582;2023-04-08T12:59:38;101145.72;;;14.94;61.66
48364;BME280;34170;54.364;18.582;2023-04-08T13:02:06;101162.25;;;14.73;61.39
48364;BME280;34170;54.364;18.582;2023-04-08T13:04:34;101150.97;;;14.78;61.71
48364;BME280;34170;54.364;18.582;2023-04-08T13:07:01;101164.81;;;14.37;62.71
48364;BME280;34170;54.364;18.582;2023-04-08T13:09:30;101169.72;;;14.52;63.08
48364;BME280;34170;54.364;18.582;2023-04-08T13:11:57;101180.63;;;13.56;66.65
48364;BME280;34170;54.364;18.582;2023-04-08T13:14:25;101172.97;;;13.41;69.36